createdAt,value
2023-01-23T00:00:30.771Z,3.08
2023-01-23T00:01:30.807Z,3.07
2023-01-23T00:02:30.784Z,3.08
2023-01-23T00:03:30.785Z,3.08
2023-01-23T00:04:30.789Z,3.12
2023-01-23T00:05:30.740Z,3.15
2023-01-23T00:06:30.745Z,3.16
2023-01-23T00:07:30.741Z,3.16
2023-01-23T00:08:30.728Z,3.19
2023-01-23T00:09:30.708Z,3.20
2023-01-23T00:10:30.750Z,3.23
2023-01-23T00:11:37.242Z,3.25
2023-01-23T00:12:30.654Z,3.28
2023-01-23T00:13:30.643Z,3.28
2023-01-23T00:14:30.622Z,3.28
2023-01-23T00:15:30.689Z,3.28
2023-01-23T00:16:30.631Z,3.31
2023-01-23T00:17:30.650Z,3.30
2023-01-23T00:18:30.649Z,3.26
2023-01-23T00:19:30.586Z,3.22
2023-01-23T00:20:30.592Z,3.20
2023-01-23T00:21:30.556Z,3.19
2023-01-23T00:22:30.576Z,3.16
2023-01-23T00:23:30.530Z,3.13
2023-01-23T00:24:30.509Z,3.10
2023-01-23T00:25:30.545Z,3.08
2023-01-23T00:26:30.510Z,3.08
2023-01-23T00:27:30.520Z,3.07
2023-01-23T00:28:30.470Z,3.05
2023-01-23T00:29:30.467Z,3.10
2023-01-23T00:30:31.072Z,3.13
2023-01-23T00:31:30.652Z,3.15
2023-01-23T00:32:30.436Z,3.17
2023-01-23T00:33:30.426Z,3.19
2023-01-23T00:34:30.420Z,3.17
2023-01-23T00:35:30.430Z,3.15
2023-01-23T00:36:30.438Z,3.10
2023-01-23T00:37:30.379Z,3.04
2023-01-23T00:38:30.360Z,3.02
2023-01-23T00:39:30.386Z,3.02
2023-01-23T00:40:30.359Z,3.01
2023-01-23T00:41:30.387Z,3.02
2023-01-23T00:42:30.362Z,3.04
2023-01-23T00:43:30.313Z,3.07
2023-01-23T00:44:30.306Z,3.07
2023-01-23T00:45:30.315Z,3.05
2023-01-23T00:46:30.325Z,3.10
2023-01-23T00:47:30.297Z,3.10
2023-01-23T00:48:30.282Z,3.13
2023-01-23T00:49:30.260Z,3.13
2023-01-23T00:50:30.260Z,3.17
2023-01-23T00:51:30.220Z,3.17
2023-01-23T00:52:30.247Z,3.19
2023-01-23T00:53:30.199Z,3.22
2023-01-23T00:54:30.231Z,3.23
2023-01-23T00:55:30.182Z,3.26
2023-01-23T00:56:30.191Z,3.31
2023-01-23T00:57:30.177Z,3.31
2023-01-23T00:58:30.181Z,3.33
2023-01-23T00:59:30.161Z,3.34
2023-01-23T01:00:30.143Z,3.34
2023-01-23T01:01:30.147Z,3.33
2023-01-23T01:02:30.165Z,3.31
2023-01-23T01:03:30.099Z,3.30
2023-01-23T01:04:30.112Z,3.26
2023-01-23T01:05:30.085Z,3.26
2023-01-23T01:06:30.078Z,3.26
2023-01-23T01:07:30.077Z,3.28
2023-01-23T01:08:30.046Z,3.28
2023-01-23T01:09:30.022Z,3.30
2023-01-23T01:10:30.021Z,3.33
2023-01-23T01:11:30.007Z,3.35
2023-01-23T01:12:30.046Z,3.35
2023-01-23T01:13:30.023Z,3.35
2023-01-23T01:14:30.007Z,3.37
2023-01-23T01:15:29.984Z,3.37
2023-01-23T01:16:30.009Z,3.37
2023-01-23T01:17:29.958Z,3.39
2023-01-23T01:18:29.942Z,3.41
2023-01-23T01:19:29.951Z,3.44
2023-01-23T01:20:29.926Z,3.42
2023-01-23T01:21:29.923Z,3.39
2023-01-23T01:22:29.917Z,3.35
2023-01-23T01:23:29.880Z,3.33
2023-01-23T01:24:29.882Z,3.31
2023-01-23T01:25:29.864Z,3.31
2023-01-23T01:26:29.846Z,3.30
2023-01-23T01:27:29.865Z,3.30
2023-01-23T01:28:29.835Z,3.30
2023-01-23T01:29:29.833Z,3.30
2023-01-23T01:30:29.802Z,3.28
2023-01-23T01:31:30.000Z,3.26
2023-01-23T01:32:29.790Z,3.23
2023-01-23T01:33:29.774Z,3.22
2023-01-23T01:34:29.778Z,3.19
2023-01-23T01:35:29.766Z,3.20
2023-01-23T01:36:29.746Z,3.19
2023-01-23T01:37:29.745Z,3.22
2023-01-23T01:38:29.728Z,3.26
2023-01-23T01:39:29.736Z,3.28
2023-01-23T01:40:29.712Z,3.31
2023-01-23T01:41:29.717Z,3.34
2023-01-23T01:42:29.703Z,3.35
2023-01-23T01:43:29.754Z,3.35
2023-01-23T01:44:29.666Z,3.37
2023-01-23T01:45:29.648Z,3.35
2023-01-23T01:46:29.666Z,3.35
2023-01-23T01:47:29.618Z,3.35
2023-01-23T01:48:29.605Z,3.39
2023-01-23T01:49:29.618Z,3.39
2023-01-23T01:50:29.591Z,3.41
2023-01-23T01:51:29.570Z,3.41
2023-01-23T01:52:29.616Z,3.39
2023-01-23T01:53:29.544Z,3.41
2023-01-23T01:54:29.562Z,3.42
2023-01-23T01:55:29.557Z,3.41
2023-01-23T01:56:29.536Z,3.42
2023-01-23T01:57:29.529Z,3.41
2023-01-23T01:58:29.516Z,3.39
2023-01-23T01:59:29.477Z,3.39
2023-01-23T02:00:29.512Z,3.37
2023-01-23T02:01:36.003Z,3.33
2023-01-23T02:02:29.451Z,3.33
2023-01-23T02:03:29.461Z,3.31
2023-01-23T02:04:29.474Z,3.26
2023-01-23T02:05:29.458Z,3.26
2023-01-23T02:06:29.432Z,3.26
2023-01-23T02:07:29.394Z,3.25
2023-01-23T02:08:29.435Z,3.23
2023-01-23T02:09:29.377Z,3.23
2023-01-23T02:10:29.378Z,3.25
2023-01-23T02:11:29.384Z,3.23
2023-01-23T02:12:29.373Z,3.28
2023-01-23T02:13:29.323Z,3.26
2023-01-23T02:14:29.405Z,3.30
2023-01-23T02:15:29.305Z,3.34
2023-01-23T02:16:29.428Z,3.35
2023-01-23T02:17:29.282Z,3.39
2023-01-23T02:18:29.291Z,3.39
2023-01-23T02:19:29.270Z,3.39
2023-01-23T02:20:29.284Z,3.39
2023-01-23T02:21:29.276Z,3.41
2023-01-23T02:22:29.251Z,3.39
2023-01-23T02:23:29.238Z,3.37
2023-01-23T02:24:29.217Z,3.34
2023-01-23T02:25:29.227Z,3.33
2023-01-23T02:26:29.213Z,3.33
2023-01-23T02:27:29.199Z,3.31
2023-01-23T02:28:29.190Z,3.33
2023-01-23T02:29:29.160Z,3.30
2023-01-23T02:30:29.182Z,3.28
2023-01-23T02:31:35.815Z,3.28
2023-01-23T02:32:29.138Z,3.28
2023-01-23T02:33:29.135Z,3.30
2023-01-23T02:34:29.119Z,3.31
2023-01-23T02:35:29.129Z,3.30
2023-01-23T02:36:29.106Z,3.26
2023-01-23T02:37:29.096Z,3.25
2023-01-23T02:38:29.151Z,3.20
2023-01-23T02:39:29.085Z,3.19
2023-01-23T02:40:29.082Z,3.16
2023-01-23T02:41:29.024Z,3.12
2023-01-23T02:42:29.016Z,3.10
2023-01-23T02:43:29.026Z,3.08
2023-01-23T02:44:29.023Z,3.08
2023-01-23T02:45:29.087Z,3.08
2023-01-23T02:46:28.991Z,3.08
2023-01-23T02:47:28.962Z,3.08
2023-01-23T02:48:28.971Z,3.05
2023-01-23T02:49:28.962Z,3.05
2023-01-23T02:50:28.943Z,3.05
2023-01-23T02:51:35.433Z,3.07
2023-01-23T02:52:28.922Z,3.08
2023-01-23T02:53:28.889Z,3.08
2023-01-23T02:54:28.911Z,3.08
2023-01-23T02:55:28.887Z,3.10
2023-01-23T02:56:28.899Z,3.12
2023-01-23T02:57:28.846Z,3.16
2023-01-23T02:58:28.866Z,3.13
2023-01-23T02:59:28.837Z,3.15
2023-01-23T03:00:28.832Z,3.15
2023-01-23T03:01:28.832Z,3.15
2023-01-23T03:02:28.857Z,3.12
2023-01-23T03:03:28.777Z,3.10
2023-01-23T03:04:28.775Z,3.07
2023-01-23T03:05:28.792Z,3.05
2023-01-23T03:06:28.776Z,3.02
2023-01-23T03:07:28.780Z,3.04
2023-01-23T03:08:28.761Z,3.04
2023-01-23T03:09:28.734Z,3.04
2023-01-23T03:10:28.731Z,3.04
2023-01-23T03:11:28.712Z,3.05
2023-01-23T03:12:28.712Z,3.05
2023-01-23T03:13:28.682Z,3.05
2023-01-23T03:14:28.669Z,3.05
2023-01-23T03:15:28.656Z,3.05
2023-01-23T03:16:28.799Z,3.08
2023-01-23T03:17:28.649Z,3.13
2023-01-23T03:18:28.644Z,3.15
2023-01-23T03:19:28.624Z,3.16
2023-01-23T03:20:28.627Z,3.17
2023-01-23T03:21:35.204Z,3.16
2023-01-23T03:22:28.606Z,3.17
2023-01-23T03:23:28.563Z,3.17
2023-01-23T03:24:28.579Z,3.19
2023-01-23T03:25:28.568Z,3.19
2023-01-23T03:26:28.591Z,3.17
2023-01-23T03:27:28.555Z,3.20
2023-01-23T03:28:28.540Z,3.20
2023-01-23T03:29:29.119Z,3.20
2023-01-23T03:30:28.510Z,3.19
2023-01-23T03:31:28.505Z,3.16
2023-01-23T03:32:28.489Z,3.16
2023-01-23T03:33:28.485Z,3.13
2023-01-23T03:34:28.449Z,3.13
2023-01-23T03:35:28.438Z,3.07
2023-01-23T03:36:28.470Z,3.05
2023-01-23T03:37:28.403Z,3.04
2023-01-23T03:38:28.432Z,3.04
2023-01-23T03:39:28.409Z,3.05
2023-01-23T03:40:28.386Z,3.07
2023-01-23T03:41:34.906Z,3.07
2023-01-23T03:42:28.374Z,3.12
2023-01-23T03:43:28.377Z,3.13
2023-01-23T03:44:28.396Z,3.15
2023-01-23T03:45:28.386Z,3.13
2023-01-23T03:46:28.347Z,3.13
2023-01-23T03:47:28.383Z,3.12
2023-01-23T03:48:28.305Z,3.13
2023-01-23T03:49:28.293Z,3.12
2023-01-23T03:50:28.304Z,3.13
2023-01-23T03:51:28.256Z,3.12
2023-01-23T03:52:28.287Z,3.15
2023-01-23T03:53:28.233Z,3.13
2023-01-23T03:54:28.255Z,3.15
2023-01-23T03:55:28.238Z,3.17
2023-01-23T03:56:28.253Z,3.20
2023-01-23T03:57:28.218Z,3.23
2023-01-23T03:58:28.195Z,3.26
2023-01-23T03:59:28.167Z,3.28
2023-01-23T04:00:28.170Z,3.28
2023-01-23T04:01:34.680Z,3.28
2023-01-23T04:02:28.166Z,3.28
2023-01-23T04:03:28.168Z,3.26
2023-01-23T04:04:28.160Z,3.25
2023-01-23T04:05:28.147Z,3.22
2023-01-23T04:06:28.110Z,3.22
2023-01-23T04:07:28.108Z,3.19
2023-01-23T04:08:28.099Z,3.16
2023-01-23T04:09:28.088Z,3.15
2023-01-23T04:10:28.047Z,3.13
2023-01-23T04:11:28.058Z,3.10
2023-01-23T04:12:28.025Z,3.04
2023-01-23T04:13:28.032Z,2.99
2023-01-23T04:14:28.027Z,2.95
2023-01-23T04:15:28.027Z,2.92
2023-01-23T04:16:28.002Z,2.87
2023-01-23T04:17:28.011Z,2.83
2023-01-23T04:18:28.033Z,2.77
2023-01-23T04:19:27.979Z,2.74
2023-01-23T04:20:27.942Z,2.71
2023-01-23T04:21:27.935Z,2.69
2023-01-23T04:22:27.928Z,2.68
2023-01-23T04:23:27.942Z,2.66
2023-01-23T04:24:27.917Z,2.66
2023-01-23T04:25:27.893Z,2.62
2023-01-23T04:26:27.905Z,2.63
2023-01-23T04:27:27.892Z,2.63
2023-01-23T04:28:27.869Z,2.61
2023-01-23T04:29:27.871Z,2.61
2023-01-23T04:30:27.890Z,2.58
2023-01-23T04:31:27.942Z,2.53
2023-01-23T04:32:27.839Z,2.53
2023-01-23T04:33:27.802Z,2.51
2023-01-23T04:34:27.808Z,2.51
2023-01-23T04:35:27.804Z,2.51
2023-01-23T04:36:27.775Z,2.51
2023-01-23T04:37:27.754Z,2.51
2023-01-23T04:38:27.757Z,2.51
2023-01-23T04:39:27.757Z,2.53
2023-01-23T04:40:27.729Z,2.51
2023-01-23T04:41:34.248Z,2.50
2023-01-23T04:42:27.755Z,2.48
2023-01-23T04:43:27.690Z,2.48
2023-01-23T04:44:27.687Z,2.48
2023-01-23T04:45:27.698Z,2.47
2023-01-23T04:46:27.674Z,2.44
2023-01-23T04:47:27.672Z,2.40
2023-01-23T04:48:27.648Z,2.36
2023-01-23T04:49:27.740Z,2.33
2023-01-23T04:50:27.632Z,2.27
2023-01-23T04:51:27.671Z,2.25
2023-01-23T04:52:27.625Z,2.19
2023-01-23T04:53:27.590Z,2.12
2023-01-23T04:54:27.598Z,2.11
2023-01-23T04:55:27.566Z,2.07
2023-01-23T04:56:27.607Z,2.01
2023-01-23T04:57:27.540Z,2.00
2023-01-23T04:58:27.571Z,1.93
2023-01-23T04:59:27.536Z,1.89
2023-01-23T05:00:27.524Z,1.89
2023-01-23T05:01:27.531Z,1.83
2023-01-23T05:02:27.599Z,1.82
2023-01-23T05:03:27.470Z,1.82
2023-01-23T05:04:27.521Z,1.77
2023-01-23T05:05:27.460Z,1.74
2023-01-23T05:06:27.471Z,1.67
2023-01-23T05:07:27.432Z,1.63
2023-01-23T05:08:27.451Z,1.60
2023-01-23T05:09:27.428Z,1.56
2023-01-23T05:10:27.432Z,1.52
2023-01-23T05:11:27.413Z,1.47
2023-01-23T05:12:27.376Z,1.44
2023-01-23T05:13:27.373Z,1.43
2023-01-23T05:14:27.363Z,1.38
2023-01-23T05:15:29.565Z,1.35
2023-01-23T05:16:27.355Z,1.34
2023-01-23T05:17:27.356Z,1.34
2023-01-23T05:18:27.312Z,1.32
2023-01-23T05:19:27.331Z,1.32
2023-01-23T05:20:27.400Z,1.34
2023-01-23T05:21:27.305Z,1.36
2023-01-23T05:22:27.291Z,1.36
2023-01-23T05:23:27.266Z,1.39
2023-01-23T05:24:27.268Z,1.42
2023-01-23T05:25:27.275Z,1.47
2023-01-23T05:26:27.224Z,1.50
2023-01-23T05:27:27.222Z,1.53
2023-01-23T05:28:27.221Z,1.56
2023-01-23T05:29:27.241Z,1.61
2023-01-23T05:30:27.241Z,1.64
2023-01-23T05:31:33.800Z,1.65
2023-01-23T05:32:27.185Z,1.71
2023-01-23T05:33:27.165Z,1.74
2023-01-23T05:34:27.142Z,1.81
2023-01-23T05:35:27.139Z,1.83
2023-01-23T05:36:27.125Z,1.89
2023-01-23T05:37:27.125Z,1.89
2023-01-23T05:38:27.127Z,1.93
2023-01-23T05:39:27.132Z,1.98
2023-01-23T05:40:27.074Z,2.00
2023-01-23T05:41:27.088Z,2.02
2023-01-23T05:42:27.071Z,2.02
2023-01-23T05:43:27.070Z,2.05
2023-01-23T05:44:27.052Z,2.05
2023-01-23T05:45:27.042Z,2.07
2023-01-23T05:46:27.215Z,2.08
2023-01-23T05:47:27.045Z,2.09
2023-01-23T05:48:27.005Z,2.12
2023-01-23T05:49:26.982Z,2.15
2023-01-23T05:50:26.996Z,2.19
2023-01-23T05:51:33.569Z,2.20
2023-01-23T05:52:26.980Z,2.23
2023-01-23T05:53:26.960Z,2.22
2023-01-23T05:54:26.929Z,2.23
2023-01-23T05:55:26.915Z,2.26
2023-01-23T05:56:26.899Z,2.27
2023-01-23T05:57:26.935Z,2.29
2023-01-23T05:58:26.905Z,2.29
2023-01-23T05:59:26.888Z,2.30
2023-01-23T06:00:26.915Z,2.32
2023-01-23T06:01:26.873Z,2.33
2023-01-23T06:02:26.901Z,2.36
2023-01-23T06:03:26.886Z,2.36
2023-01-23T06:04:26.811Z,2.40
2023-01-23T06:05:26.828Z,2.41
2023-01-23T06:06:26.817Z,2.41
2023-01-23T06:07:26.839Z,2.43
2023-01-23T06:08:26.776Z,2.43
2023-01-23T06:09:26.771Z,2.43
2023-01-23T06:10:26.768Z,2.43
2023-01-23T06:11:26.764Z,2.43
2023-01-23T06:12:26.729Z,2.45
2023-01-23T06:13:26.754Z,2.44
2023-01-23T06:14:26.723Z,2.40
2023-01-23T06:15:26.728Z,2.37
2023-01-23T06:16:26.723Z,2.36
2023-01-23T06:17:26.711Z,2.33
2023-01-23T06:18:26.677Z,2.33
2023-01-23T06:19:26.690Z,2.36
2023-01-23T06:20:26.655Z,2.36
2023-01-23T06:21:26.661Z,2.37
2023-01-23T06:22:26.741Z,2.37
2023-01-23T06:23:26.610Z,2.37
2023-01-23T06:24:26.627Z,2.38
2023-01-23T06:25:26.608Z,2.40
2023-01-23T06:26:26.604Z,2.44
2023-01-23T06:27:26.595Z,2.47
2023-01-23T06:28:26.564Z,2.51
2023-01-23T06:29:26.542Z,2.56
2023-01-23T06:30:26.563Z,2.58
2023-01-23T06:31:26.621Z,2.59
2023-01-23T06:32:26.524Z,2.61
2023-01-23T06:33:26.538Z,2.62
2023-01-23T06:34:26.520Z,2.63
2023-01-23T06:35:26.490Z,2.65
2023-01-23T06:36:26.494Z,2.63
2023-01-23T06:37:26.492Z,2.63
2023-01-23T06:38:26.457Z,2.62
2023-01-23T06:39:26.431Z,2.62
2023-01-23T06:40:26.461Z,2.62
2023-01-23T06:41:26.425Z,2.63
2023-01-23T06:42:26.409Z,2.59
2023-01-23T06:43:26.390Z,2.61
2023-01-23T06:44:26.407Z,2.58
2023-01-23T06:45:26.404Z,2.59
2023-01-23T06:46:26.421Z,2.58
2023-01-23T06:47:26.353Z,2.56
2023-01-23T06:48:26.382Z,2.56
2023-01-23T06:49:26.321Z,2.56
2023-01-23T06:50:26.327Z,2.56
2023-01-23T06:51:26.357Z,2.58
2023-01-23T06:52:26.294Z,2.59
2023-01-23T06:53:26.378Z,2.59
2023-01-23T06:54:26.312Z,2.61
2023-01-23T06:55:26.290Z,2.59
2023-01-23T06:56:26.266Z,2.58
2023-01-23T06:57:26.265Z,2.58
2023-01-23T06:58:26.252Z,2.59
2023-01-23T06:59:26.261Z,2.59
2023-01-23T07:00:26.212Z,2.61
2023-01-23T07:01:26.240Z,2.61
2023-01-23T07:02:26.186Z,2.62
2023-01-23T07:03:26.210Z,2.62
2023-01-23T07:04:26.166Z,2.62
2023-01-23T07:05:26.161Z,2.59
2023-01-23T07:06:26.136Z,2.61
2023-01-23T07:07:26.150Z,2.59
2023-01-23T07:08:26.137Z,2.63
2023-01-23T07:09:26.130Z,2.61
2023-01-23T07:10:26.133Z,2.63
2023-01-23T07:11:26.189Z,2.65
2023-01-23T07:12:26.101Z,2.66
2023-01-23T07:13:26.139Z,2.68
2023-01-23T07:14:26.067Z,2.69
2023-01-23T07:15:26.072Z,2.69
2023-01-23T07:16:26.306Z,2.71
2023-01-23T07:17:26.043Z,2.74
2023-01-23T07:18:26.018Z,2.74
2023-01-23T07:19:26.028Z,2.74
2023-01-23T07:20:26.022Z,2.76
2023-01-23T07:21:26.016Z,2.77
2023-01-23T07:22:26.004Z,2.77
2023-01-23T07:23:26.311Z,2.77
2023-01-23T07:24:26.045Z,2.79
2023-01-23T07:25:25.952Z,2.79
2023-01-23T07:26:26.807Z,2.79
2023-01-23T07:27:25.915Z,2.80
2023-01-23T07:28:26.173Z,2.81
2023-01-23T07:29:26.888Z,2.84
2023-01-23T07:30:25.930Z,2.86
2023-01-23T07:31:25.964Z,2.87
2023-01-23T07:32:25.887Z,2.90
2023-01-23T07:33:25.882Z,2.90
2023-01-23T07:34:25.871Z,2.94
2023-01-23T07:35:26.080Z,2.92
2023-01-23T07:36:25.887Z,2.92
2023-01-23T07:37:25.866Z,2.90
2023-01-23T07:38:25.810Z,2.90
2023-01-23T07:39:25.794Z,2.92
2023-01-23T07:40:25.826Z,2.92
2023-01-23T07:41:32.325Z,2.92
2023-01-23T07:42:25.777Z,2.94
2023-01-23T07:43:25.767Z,2.97
2023-01-23T07:44:25.755Z,2.97
2023-01-23T07:45:25.745Z,2.99
2023-01-23T07:46:25.842Z,3.01
2023-01-23T07:47:25.694Z,3.05
2023-01-23T07:48:25.740Z,3.07
2023-01-23T07:49:28.382Z,3.08
2023-01-23T07:50:25.697Z,3.05
2023-01-23T07:51:25.741Z,3.04
2023-01-23T07:52:25.666Z,3.02
2023-01-23T07:53:25.661Z,3.04
2023-01-23T07:54:25.643Z,3.04
2023-01-23T07:55:25.700Z,3.05
2023-01-23T07:56:26.313Z,3.05
2023-01-23T07:57:25.589Z,3.05
2023-01-23T07:58:25.613Z,3.07
2023-01-23T07:59:25.567Z,3.08
2023-01-23T08:00:27.793Z,3.10
2023-01-23T08:01:32.069Z,3.12
2023-01-23T08:02:25.591Z,3.15
2023-01-23T08:03:25.531Z,3.16
2023-01-23T08:04:25.554Z,3.17
2023-01-23T08:05:25.534Z,3.22
2023-01-23T08:06:25.568Z,3.25
2023-01-23T08:07:25.557Z,3.28
2023-01-23T08:08:25.507Z,3.30
2023-01-23T08:09:25.499Z,3.33
2023-01-23T08:10:25.475Z,3.35
2023-01-23T08:11:25.451Z,3.35
2023-01-23T08:12:25.453Z,3.35
2023-01-23T08:13:25.458Z,3.37
2023-01-23T08:14:25.476Z,3.37
2023-01-23T08:15:25.430Z,3.39
2023-01-23T08:16:25.481Z,3.39
2023-01-23T08:17:25.412Z,3.35
2023-01-23T08:18:25.376Z,3.39
2023-01-23T08:19:25.408Z,3.39
2023-01-23T08:20:25.359Z,3.41
2023-01-23T08:21:32.499Z,3.39
2023-01-23T08:22:25.336Z,3.41
2023-01-23T08:23:25.337Z,3.41
2023-01-23T08:24:25.330Z,3.42
2023-01-23T08:25:25.356Z,3.44
2023-01-23T08:26:25.368Z,3.46
2023-01-23T08:27:25.285Z,3.49
2023-01-23T08:28:25.283Z,3.52
2023-01-23T08:29:25.274Z,3.52
2023-01-23T08:30:25.272Z,3.53
2023-01-23T08:31:25.404Z,3.54
2023-01-23T08:32:25.215Z,3.56
2023-01-23T08:33:25.244Z,3.59
2023-01-23T08:34:25.231Z,3.60
2023-01-23T08:35:25.207Z,3.59
2023-01-23T08:36:25.206Z,3.62
2023-01-23T08:37:25.157Z,3.62
2023-01-23T08:38:25.180Z,3.63
2023-01-23T08:39:25.173Z,3.64
2023-01-23T08:40:25.138Z,3.68
2023-01-23T08:41:31.648Z,3.70
2023-01-23T08:42:25.154Z,3.70
2023-01-23T08:43:25.174Z,3.71
2023-01-23T08:44:25.925Z,3.70
2023-01-23T08:45:25.130Z,3.68
2023-01-23T08:46:25.090Z,3.68
2023-01-23T08:47:25.076Z,3.68
2023-01-23T08:48:25.078Z,3.70
2023-01-23T08:49:25.043Z,3.72
2023-01-23T08:50:25.033Z,3.75
2023-01-23T08:51:25.055Z,3.77
2023-01-23T08:52:25.008Z,3.78
2023-01-23T08:53:25.011Z,3.80
2023-01-23T08:54:24.983Z,3.77
2023-01-23T08:55:24.987Z,3.80
2023-01-23T08:56:24.981Z,3.81
2023-01-23T08:57:25.046Z,3.84
2023-01-23T08:58:24.934Z,3.82
2023-01-23T08:59:24.952Z,3.81
2023-01-23T09:00:24.932Z,3.81
2023-01-23T09:01:25.018Z,3.81
2023-01-23T09:02:25.059Z,3.80
2023-01-23T09:03:24.909Z,3.81
2023-01-23T09:04:24.883Z,3.82
2023-01-23T09:05:24.877Z,3.86
2023-01-23T09:06:24.840Z,3.86
2023-01-23T09:07:25.102Z,3.89
2023-01-23T09:08:24.843Z,3.89
2023-01-23T09:09:24.833Z,3.90
2023-01-23T09:10:24.815Z,3.90
2023-01-23T09:11:24.810Z,3.92
2023-01-23T09:12:24.785Z,3.95
2023-01-23T09:13:24.802Z,3.98
2023-01-23T09:14:24.769Z,3.99
2023-01-23T09:15:24.764Z,4.04
2023-01-23T09:16:24.759Z,4.07
2023-01-23T09:17:24.729Z,4.13
2023-01-23T09:18:24.713Z,4.17
2023-01-23T09:19:24.910Z,4.24
2023-01-23T09:20:24.726Z,4.28
2023-01-23T09:21:31.202Z,4.31
2023-01-23T09:22:24.667Z,4.36
2023-01-23T09:23:24.674Z,4.42
2023-01-23T09:24:24.897Z,4.47
2023-01-23T09:25:24.655Z,4.51
2023-01-23T09:26:24.635Z,4.59
2023-01-23T09:27:24.605Z,4.62
2023-01-23T09:28:24.872Z,4.65
2023-01-23T09:29:24.601Z,4.69
2023-01-23T09:30:24.698Z,4.74
2023-01-23T09:31:24.886Z,4.75
2023-01-23T09:32:24.560Z,4.79
2023-01-23T09:33:24.541Z,4.83
2023-01-23T09:34:24.751Z,4.84
2023-01-23T09:35:24.766Z,4.86
2023-01-23T09:36:37.704Z,4.90
2023-01-23T09:37:24.510Z,4.93
2023-01-23T09:38:24.709Z,4.94
2023-01-23T09:39:24.496Z,4.97
2023-01-23T09:40:24.497Z,5.04
2023-01-23T09:41:31.000Z,5.08
2023-01-23T09:42:24.484Z,5.15
2023-01-23T09:43:24.436Z,5.19
2023-01-23T09:44:24.647Z,5.24
2023-01-23T09:45:24.427Z,5.26
2023-01-23T09:46:24.436Z,5.30
2023-01-23T09:47:24.612Z,5.33
2023-01-23T09:48:24.643Z,5.38
2023-01-23T09:49:26.570Z,5.40
2023-01-23T09:50:25.870Z,5.44
2023-01-23T09:51:24.602Z,5.47
2023-01-23T09:52:24.367Z,5.49
2023-01-23T09:53:24.358Z,5.55
2023-01-23T09:54:24.755Z,5.56
2023-01-23T09:55:24.319Z,5.60
2023-01-23T09:56:24.828Z,5.66
2023-01-23T09:57:25.202Z,5.70
2023-01-23T09:58:24.315Z,5.73
2023-01-23T09:59:24.320Z,5.73
2023-01-23T10:00:24.980Z,5.75
2023-01-23T10:01:31.846Z,5.74
2023-01-23T10:02:26.775Z,5.74
2023-01-23T10:03:24.237Z,5.73
2023-01-23T10:04:24.217Z,5.66
2023-01-23T10:05:24.196Z,5.60
2023-01-23T10:06:24.209Z,5.55
2023-01-23T10:07:24.200Z,5.47
2023-01-23T10:08:24.393Z,5.42
2023-01-23T10:09:24.175Z,5.42
2023-01-23T10:10:24.476Z,5.45
2023-01-23T10:11:24.157Z,5.47
2023-01-23T10:12:24.140Z,5.51
2023-01-23T10:13:24.125Z,5.55
2023-01-23T10:14:24.118Z,5.59
2023-01-23T10:15:24.111Z,5.65
2023-01-23T10:16:24.141Z,5.65
2023-01-23T10:17:24.185Z,5.69
2023-01-23T10:18:24.103Z,5.69
2023-01-23T10:19:24.103Z,5.70
2023-01-23T10:20:24.265Z,5.75
2023-01-23T10:21:30.538Z,5.77
2023-01-23T10:22:24.012Z,5.83
2023-01-23T10:23:23.992Z,5.88
2023-01-23T10:24:24.012Z,5.92
2023-01-23T10:25:23.976Z,5.96
2023-01-23T10:26:23.985Z,5.99
2023-01-23T10:27:23.943Z,6.06
2023-01-23T10:28:23.979Z,6.08
2023-01-23T10:29:23.927Z,6.06
2023-01-23T10:30:24.282Z,6.06
2023-01-23T10:31:24.176Z,6.08
2023-01-23T10:32:23.926Z,6.13
2023-01-23T10:33:23.888Z,6.14
2023-01-23T10:34:24.156Z,6.19
2023-01-23T10:35:23.868Z,6.24
2023-01-23T10:36:25.232Z,6.27
2023-01-23T10:37:23.838Z,6.27
2023-01-23T10:38:23.855Z,6.20
2023-01-23T10:39:23.833Z,6.19
2023-01-23T10:40:23.827Z,6.20
2023-01-23T10:41:30.348Z,6.19
2023-01-23T10:42:23.813Z,6.11
2023-01-23T10:43:23.782Z,5.99
2023-01-23T10:44:23.768Z,6.02
2023-01-23T10:45:23.781Z,6.05
2023-01-23T10:46:23.873Z,6.02
2023-01-23T10:47:23.748Z,5.99
2023-01-23T10:48:23.727Z,5.95
2023-01-23T10:49:23.729Z,5.98
2023-01-23T10:50:23.725Z,6.02
2023-01-23T10:51:23.754Z,6.06
2023-01-23T10:52:23.725Z,6.10
2023-01-23T10:53:23.696Z,6.14
2023-01-23T10:54:31.697Z,6.19
2023-01-23T10:55:23.719Z,6.21
2023-01-23T10:56:23.642Z,6.32
2023-01-23T10:57:23.622Z,6.38
2023-01-23T10:58:23.623Z,6.42
2023-01-23T10:59:23.622Z,6.43
2023-01-23T11:00:23.636Z,6.46
2023-01-23T11:01:23.701Z,6.45
2023-01-23T11:02:23.731Z,6.43
2023-01-23T11:03:23.565Z,6.43
2023-01-23T11:04:23.578Z,6.48
2023-01-23T11:05:23.541Z,6.48
2023-01-23T11:06:23.543Z,6.53
2023-01-23T11:07:23.538Z,6.57
2023-01-23T11:08:23.535Z,6.57
2023-01-23T11:09:23.504Z,6.54
2023-01-23T11:10:23.481Z,6.57
2023-01-23T11:11:23.483Z,6.60
2023-01-23T11:12:23.491Z,6.63
2023-01-23T11:13:23.449Z,6.68
2023-01-23T11:14:23.442Z,6.72
2023-01-23T11:15:23.782Z,6.75
2023-01-23T11:16:23.651Z,6.76
2023-01-23T11:17:23.452Z,6.68
2023-01-23T11:18:23.388Z,6.68
2023-01-23T11:19:23.412Z,6.69
2023-01-23T11:20:23.374Z,6.72
2023-01-23T11:21:23.372Z,6.68
2023-01-23T11:22:23.343Z,6.64
2023-01-23T11:23:23.358Z,6.64
2023-01-23T11:24:37.795Z,6.65
2023-01-23T11:25:23.406Z,6.64
2023-01-23T11:26:23.311Z,6.64
2023-01-23T11:27:23.316Z,6.65
2023-01-23T11:28:23.585Z,6.64
2023-01-23T11:29:23.315Z,6.65
2023-01-23T11:30:23.274Z,6.60
2023-01-23T11:31:29.977Z,6.53
2023-01-23T11:32:23.465Z,6.54
2023-01-23T11:33:23.249Z,6.51
2023-01-23T11:34:23.243Z,6.48
2023-01-23T11:35:23.679Z,6.40
2023-01-23T11:36:23.207Z,6.39
2023-01-23T11:37:23.239Z,6.40
2023-01-23T11:38:30.529Z,6.42
2023-01-23T11:39:23.204Z,6.43
2023-01-23T11:40:23.161Z,6.48
2023-01-23T11:41:23.188Z,6.51
2023-01-23T11:42:23.166Z,6.55
2023-01-23T11:43:23.154Z,6.60
2023-01-23T11:44:24.289Z,6.63
2023-01-23T11:45:23.096Z,6.68
2023-01-23T11:46:23.133Z,6.73
2023-01-23T11:47:23.091Z,6.76
2023-01-23T11:48:23.094Z,6.78
2023-01-23T11:49:23.093Z,6.82
2023-01-23T11:50:23.035Z,6.86
2023-01-23T11:51:23.117Z,6.83
2023-01-23T11:52:23.028Z,6.79
2023-01-23T11:53:30.693Z,6.71
2023-01-23T11:54:23.001Z,6.64
2023-01-23T11:55:23.468Z,6.61
2023-01-23T11:56:23.003Z,6.61
2023-01-23T11:57:23.009Z,6.60
2023-01-23T11:58:22.961Z,6.55
2023-01-23T11:59:22.977Z,6.54
2023-01-23T12:00:23.358Z,6.46
2023-01-23T12:01:30.883Z,6.39
2023-01-23T12:02:23.229Z,6.36
2023-01-23T12:03:22.908Z,6.42
2023-01-23T12:04:23.121Z,6.48
2023-01-23T12:05:24.124Z,6.54
2023-01-23T12:06:22.906Z,6.60
2023-01-23T12:07:22.958Z,6.64
2023-01-23T12:08:23.075Z,6.69
2023-01-23T12:09:22.866Z,6.72
2023-01-23T12:10:23.041Z,6.75
2023-01-23T12:11:22.802Z,6.73
2023-01-23T12:12:23.007Z,6.69
2023-01-23T12:13:22.794Z,6.69
2023-01-23T12:14:22.817Z,6.71
2023-01-23T12:15:22.798Z,6.73
2023-01-23T12:16:23.044Z,6.78
2023-01-23T12:17:22.837Z,6.83
2023-01-23T12:18:22.746Z,6.81
2023-01-23T12:19:24.270Z,6.83
2023-01-23T12:20:23.129Z,6.89
2023-01-23T12:21:22.921Z,6.91
2023-01-23T12:22:22.734Z,6.89
2023-01-23T12:23:22.666Z,6.89
2023-01-23T12:24:22.680Z,6.89
2023-01-23T12:25:23.065Z,6.89
2023-01-23T12:26:22.736Z,6.83
2023-01-23T12:27:22.657Z,6.83
2023-01-23T12:28:22.644Z,6.73
2023-01-23T12:29:22.831Z,6.71
2023-01-23T12:30:22.863Z,6.71
2023-01-23T12:31:29.263Z,6.69
2023-01-23T12:32:22.747Z,6.71
2023-01-23T12:33:22.641Z,6.73
2023-01-23T12:34:22.577Z,6.72
2023-01-23T12:35:22.534Z,6.75
2023-01-23T12:36:22.559Z,6.79
2023-01-23T12:37:30.314Z,6.83
2023-01-23T12:38:22.559Z,6.83
2023-01-23T12:39:22.631Z,6.86
2023-01-23T12:40:23.142Z,6.86
2023-01-23T12:41:22.488Z,6.83
2023-01-23T12:42:22.501Z,6.89
2023-01-23T12:43:22.462Z,6.89
2023-01-23T12:44:22.477Z,6.93
2023-01-23T12:45:22.968Z,6.96
2023-01-23T12:46:22.450Z,6.97
2023-01-23T12:47:22.422Z,6.99
2023-01-23T12:48:22.417Z,7.00
2023-01-23T12:49:22.381Z,7.01
2023-01-23T12:50:22.407Z,6.99
2023-01-23T12:51:28.910Z,6.99
2023-01-23T12:52:22.362Z,6.99
2023-01-23T12:53:22.338Z,7.00
2023-01-23T12:54:22.340Z,7.04
2023-01-23T12:55:22.333Z,7.05
2023-01-23T12:56:22.339Z,7.07
2023-01-23T12:57:27.243Z,7.09
2023-01-23T12:58:22.350Z,7.08
2023-01-23T12:59:22.298Z,7.04
2023-01-23T13:00:22.630Z,7.00
2023-01-23T13:01:22.336Z,7.01
2023-01-23T13:02:22.320Z,6.97
2023-01-23T13:03:22.961Z,6.94
2023-01-23T13:04:22.319Z,6.94
2023-01-23T13:05:22.242Z,6.91
2023-01-23T13:06:22.227Z,6.86
2023-01-23T13:07:22.205Z,6.86
2023-01-23T13:08:22.217Z,6.86
2023-01-23T13:09:22.167Z,6.79
2023-01-23T13:10:22.838Z,6.75
2023-01-23T13:11:28.695Z,6.72
2023-01-23T13:12:22.612Z,6.71
2023-01-23T13:13:22.142Z,6.72
2023-01-23T13:14:22.117Z,6.72
2023-01-23T13:15:34.273Z,6.73
2023-01-23T13:16:22.189Z,6.75
2023-01-23T13:17:22.086Z,6.79
2023-01-23T13:18:22.303Z,6.86